sensor_id;sensor_type;location;lat;lon;timestamp;P1;durP1;ratioP1;P2;durP2;ratioP2
4921;SDS011;16625;53.624;10.106;2024-02-28T00:02:01;21.27;;;13.97;;
4921;SDS011;16625;53.624;10.106;2024-02-28T00:04:28;23.20;;;14.27;;
4921;SDS011;16625;53.624;10.106;2024-02-28T00:06:55;21.10;;;14.60;;
4921;SDS011;16625;53.624;10.106;2024-02-28T00:09:22;23.53;;;14.80;;
4921;SDS011;16625;53.624;10.106;2024-02-28T00:11:49;31.83;;;17.40;;
4921;SDS011;16625;53.624;10.106;2024-02-28T00:14:16;26.77;;;16.47;;
4921;SDS011;16625;53.624;10.106;2024-02-28T00:16:45;25.77;;;15.63;;
4921;SDS011;16625;53.624;10.106;2024-02-28T00:19:13;24.50;;;16.30;;
4921;SDS011;16625;53.624;10.106;2024-02-28T00:21:40;25.80;;;15.70;;
4921;SDS011;16625;53.624;10.106;2024-02-28T00:24:07;25.97;;;15.57;;
4921;SDS011;16625;53.624;10.106;2024-02-28T00:26:34;21.90;;;13.60;;
4921;SDS011;16625;53.624;10.106;2024-02-28T00:29:01;25.13;;;16.80;;
4921;SDS011;16625;53.624;10.106;2024-02-28T00:31:28;29.27;;;17.30;;
4921;SDS011;16625;53.624;10.106;2024-02-28T00:33:56;22.87;;;14.23;;
4921;SDS011;16625;53.624;10.106;2024-02-28T00:36:23;29.47;;;16.87;;
4921;SDS011;16625;53.624;10.106;2024-02-28T00:38:50;22.23;;;14.73;;
4921;SDS011;16625;53.624;10.106;2024-02-28T00:41:17;29.50;;;15.83;;
4921;SDS011;16625;53.624;10.106;2024-02-28T00:43:44;26.73;;;15.57;;
4921;SDS011;16625;53.624;10.106;2024-02-28T00:46:10;27.73;;;16.17;;
4921;SDS011;16625;53.624;10.106;2024-02-28T00:48:38;30.27;;;17.20;;
4921;SDS011;16625;53.624;10.106;2024-02-28T00:51:06;27.20;;;15.53;;
4921;SDS011;16625;53.624;10.106;2024-02-28T00:53:33;29.00;;;16.37;;
4921;SDS011;16625;53.624;10.106;2024-02-28T00:56:00;30.23;;;16.27;;
4921;SDS011;16625;53.624;10.106;2024-02-28T00:58:27;32.70;;;19.10;;
4921;SDS011;16625;53.624;10.106;2024-02-28T01:00:55;34.97;;;19.93;;
4921;SDS011;16625;53.624;10.106;2024-02-28T01:03:23;30.97;;;17.87;;
4921;SDS011;16625;53.624;10.106;2024-02-28T01:05:50;35.07;;;19.33;;
4921;SDS011;16625;53.624;10.106;2024-02-28T01:08:18;32.27;;;19.10;;
4921;SDS011;16625;53.624;10.106;2024-02-28T01:10:45;33.03;;;19.90;;
4921;SDS011;16625;53.624;10.106;2024-02-28T01:13:12;34.07;;;19.30;;
4921;SDS011;16625;53.624;10.106;2024-02-28T01:15:39;33.50;;;20.37;;
4921;SDS011;16625;53.624;10.106;2024-02-28T01:18:06;35.70;;;20.37;;
4921;SDS011;16625;53.624;10.106;2024-02-28T01:20:33;34.73;;;19.20;;
4921;SDS011;16625;53.624;10.106;2024-02-28T01:23:00;33.50;;;18.73;;
4921;SDS011;16625;53.624;10.106;2024-02-28T01:25:29;35.70;;;20.83;;
4921;SDS011;16625;53.624;10.106;2024-02-28T01:27:56;35.60;;;20.73;;
4921;SDS011;16625;53.624;10.106;2024-02-28T01:30:23;31.67;;;19.67;;
4921;SDS011;16625;53.624;10.106;2024-02-28T01:32:50;28.20;;;17.93;;
4921;SDS011;16625;53.624;10.106;2024-02-28T01:35:17;33.17;;;19.10;;
4921;SDS011;16625;53.624;10.106;2024-02-28T01:37:44;31.33;;;19.10;;
4921;SDS011;16625;53.624;10.106;2024-02-28T01:40:11;34.17;;;19.47;;
4921;SDS011;16625;53.624;10.106;2024-02-28T01:42:40;31.27;;;18.00;;
4921;SDS011;16625;53.624;10.106;2024-02-28T01:45:07;32.73;;;18.50;;
4921;SDS011;16625;53.624;10.106;2024-02-28T01:47:39;36.73;;;22.70;;
4921;SDS011;16625;53.624;10.106;2024-02-28T01:50:06;40.53;;;19.80;;
4921;SDS011;16625;53.624;10.106;2024-02-28T01:52:35;35.93;;;20.37;;
4921;SDS011;16625;53.624;10.106;2024-02-28T01:55:03;30.03;;;18.60;;
4921;SDS011;16625;53.624;10.106;2024-02-28T01:57:31;34.67;;;19.20;;
4921;SDS011;16625;53.624;10.106;2024-02-28T02:00:01;34.40;;;19.93;;
4921;SDS011;16625;53.624;10.106;2024-02-28T02:02:29;46.20;;;21.67;;
4921;SDS011;16625;53.624;10.106;2024-02-28T02:04:55;34.90;;;20.17;;
4921;SDS011;16625;53.624;10.106;2024-02-28T02:07:23;36.57;;;19.73;;
4921;SDS011;16625;53.624;10.106;2024-02-28T02:09:51;33.77;;;20.10;;
4921;SDS011;16625;53.624;10.106;2024-02-28T02:12:18;37.83;;;19.57;;
4921;SDS011;16625;53.624;10.106;2024-02-28T02:14:46;40.10;;;21.17;;
4921;SDS011;16625;53.624;10.106;2024-02-28T02:17:15;38.23;;;22.43;;
4921;SDS011;16625;53.624;10.106;2024-02-28T02:19:42;39.20;;;22.40;;
4921;SDS011;16625;53.624;10.106;2024-02-28T02:22:09;36.53;;;20.03;;
4921;SDS011;16625;53.624;10.106;2024-02-28T02:24:39;41.20;;;22.83;;
4921;SDS011;16625;53.624;10.106;2024-02-28T02:27:06;35.70;;;20.20;;
4921;SDS011;16625;53.624;10.106;2024-02-28T02:29:33;41.97;;;21.00;;
4921;SDS011;16625;53.624;10.106;2024-02-28T02:32:00;38.30;;;21.70;;
4921;SDS011;16625;53.624;10.106;2024-02-28T02:34:27;41.73;;;21.60;;
4921;SDS011;16625;53.624;10.106;2024-02-28T02:36:54;38.13;;;21.73;;
4921;SDS011;16625;53.624;10.106;2024-02-28T02:39:20;38.27;;;19.60;;
4921;SDS011;16625;53.624;10.106;2024-02-28T02:41:49;39.77;;;21.40;;
4921;SDS011;16625;53.624;10.106;2024-02-28T02:44:16;43.20;;;22.47;;
4921;SDS011;16625;53.624;10.106;2024-02-28T02:46:43;40.23;;;21.97;;
4921;SDS011;16625;53.624;10.106;2024-02-28T02:49:10;40.43;;;20.30;;
4921;SDS011;16625;53.624;10.106;2024-02-28T02:51:37;37.83;;;19.80;;
4921;SDS011;16625;53.624;10.106;2024-02-28T02:54:04;43.27;;;20.27;;
4921;SDS011;16625;53.624;10.106;2024-02-28T02:56:32;39.33;;;20.10;;
4921;SDS011;16625;53.624;10.106;2024-02-28T02:59:01;41.30;;;17.90;;
4921;SDS011;16625;53.624;10.106;2024-02-28T03:01:27;34.90;;;19.00;;
4921;SDS011;16625;53.624;10.106;2024-02-28T03:03:54;41.07;;;22.97;;
4921;SDS011;16625;53.624;10.106;2024-02-28T03:06:21;26.37;;;14.00;;
4921;SDS011;16625;53.624;10.106;2024-02-28T03:08:49;35.73;;;18.00;;
4921;SDS011;16625;53.624;10.106;2024-02-28T03:11:15;34.27;;;17.70;;
4921;SDS011;16625;53.624;10.106;2024-02-28T03:13:42;34.63;;;18.17;;
4921;SDS011;16625;53.624;10.106;2024-02-28T03:16:11;32.20;;;16.40;;
4921;SDS011;16625;53.624;10.106;2024-02-28T03:18:37;38.70;;;17.27;;
4921;SDS011;16625;53.624;10.106;2024-02-28T03:21:04;33.77;;;15.33;;
4921;SDS011;16625;53.624;10.106;2024-02-28T03:23:32;28.57;;;15.00;;
4921;SDS011;16625;53.624;10.106;2024-02-28T03:26:01;36.47;;;16.87;;
4921;SDS011;16625;53.624;10.106;2024-02-28T03:28:28;31.60;;;14.27;;
4921;SDS011;16625;53.624;10.106;2024-02-28T03:30:55;26.83;;;12.30;;
4921;SDS011;16625;53.624;10.106;2024-02-28T03:33:23;35.33;;;15.30;;
4921;SDS011;16625;53.624;10.106;2024-02-28T03:35:51;34.07;;;15.50;;
4921;SDS011;16625;53.624;10.106;2024-02-28T03:38:18;29.73;;;14.23;;
4921;SDS011;16625;53.624;10.106;2024-02-28T03:40:45;31.47;;;15.90;;
4921;SDS011;16625;53.624;10.106;2024-02-28T03:43:10;30.20;;;17.00;;
4921;SDS011;16625;53.624;10.106;2024-02-28T03:45:38;28.17;;;13.97;;
4921;SDS011;16625;53.624;10.106;2024-02-28T03:48:05;26.30;;;13.93;;
4921;SDS011;16625;53.624;10.106;2024-02-28T03:50:34;38.73;;;18.40;;
4921;SDS011;16625;53.624;10.106;2024-02-28T03:53:02;34.13;;;18.43;;
4921;SDS011;16625;53.624;10.106;2024-02-28T03:55:30;29.70;;;15.27;;
4921;SDS011;16625;53.624;10.106;2024-02-28T03:57:57;35.73;;;17.10;;
4921;SDS011;16625;53.624;10.106;2024-02-28T04:00:24;36.27;;;15.53;;
4921;SDS011;16625;53.624;10.106;2024-02-28T04:02:51;34.90;;;17.13;;
4921;SDS011;16625;53.624;10.106;2024-02-28T04:05:18;33.47;;;14.90;;
4921;SDS011;16625;53.624;10.106;2024-02-28T04:07:46;33.77;;;14.87;;
4921;SDS011;16625;53.624;10.106;2024-02-28T04:10:14;38.77;;;16.63;;
4921;SDS011;16625;53.624;10.106;2024-02-28T04:12:42;29.53;;;16.33;;
4921;SDS011;16625;53.624;10.106;2024-02-28T04:15:10;34.43;;;17.40;;
4921;SDS011;16625;53.624;10.106;2024-02-28T04:17:37;32.67;;;18.20;;
4921;SDS011;16625;53.624;10.106;2024-02-28T04:20:07;27.67;;;15.93;;
4921;SDS011;16625;53.624;10.106;2024-02-28T04:22:35;32.43;;;14.73;;
4921;SDS011;16625;53.624;10.106;2024-02-28T04:25:03;36.30;;;15.40;;
4921;SDS011;16625;53.624;10.106;2024-02-28T04:27:30;35.67;;;15.70;;
4921;SDS011;16625;53.624;10.106;2024-02-28T04:29:57;34.17;;;16.53;;
4921;SDS011;16625;53.624;10.106;2024-02-28T04:32:24;34.47;;;16.30;;
4921;SDS011;16625;53.624;10.106;2024-02-28T04:34:51;32.03;;;16.97;;
4921;SDS011;16625;53.624;10.106;2024-02-28T04:37:18;34.17;;;16.77;;
4921;SDS011;16625;53.624;10.106;2024-02-28T04:39:45;31.80;;;15.20;;
4921;SDS011;16625;53.624;10.106;2024-02-28T04:42:14;30.93;;;16.13;;
4921;SDS011;16625;53.624;10.106;2024-02-28T04:44:41;39.20;;;16.67;;
4921;SDS011;16625;53.624;10.106;2024-02-28T04:47:08;27.13;;;16.00;;
4921;SDS011;16625;53.624;10.106;2024-02-28T04:49:36;35.40;;;17.10;;
4921;SDS011;16625;53.624;10.106;2024-02-28T04:52:04;40.60;;;18.00;;
4921;SDS011;16625;53.624;10.106;2024-02-28T04:54:31;34.33;;;16.67;;
4921;SDS011;16625;53.624;10.106;2024-02-28T04:56:58;35.37;;;16.67;;
4921;SDS011;16625;53.624;10.106;2024-02-28T04:59:27;38.10;;;17.30;;
4921;SDS011;16625;53.624;10.106;2024-02-28T05:01:54;37.73;;;17.57;;
4921;SDS011;16625;53.624;10.106;2024-02-28T05:04:21;35.77;;;17.10;;
4921;SDS011;16625;53.624;10.106;2024-02-28T05:06:48;44.73;;;18.20;;
4921;SDS011;16625;53.624;10.106;2024-02-28T05:09:15;37.70;;;16.77;;
4921;SDS011;16625;53.624;10.106;2024-02-28T05:11:43;42.37;;;19.17;;
4921;SDS011;16625;53.624;10.106;2024-02-28T05:14:10;37.53;;;17.40;;
4921;SDS011;16625;53.624;10.106;2024-02-28T05:16:39;39.63;;;18.10;;
4921;SDS011;16625;53.624;10.106;2024-02-28T05:19:05;37.00;;;18.10;;
4921;SDS011;16625;53.624;10.106;2024-02-28T05:21:38;34.77;;;17.40;;
4921;SDS011;16625;53.624;10.106;2024-02-28T05:24:06;35.00;;;16.67;;
4921;SDS011;16625;53.624;10.106;2024-02-28T05:26:33;40.93;;;17.70;;
4921;SDS011;16625;53.624;10.106;2024-02-28T05:29:00;37.10;;;19.07;;
4921;SDS011;16625;53.624;10.106;2024-02-28T05:31:29;30.90;;;17.00;;
4921;SDS011;16625;53.624;10.106;2024-02-28T05:33:59;43.23;;;18.13;;
4921;SDS011;16625;53.624;10.106;2024-02-28T05:36:27;35.03;;;18.47;;
4921;SDS011;16625;53.624;10.106;2024-02-28T05:38:55;34.90;;;19.27;;
4921;SDS011;16625;53.624;10.106;2024-02-28T05:41:23;34.57;;;17.10;;
4921;SDS011;16625;53.624;10.106;2024-02-28T05:43:50;34.83;;;17.67;;
4921;SDS011;16625;53.624;10.106;2024-02-28T05:46:17;31.33;;;16.77;;
4921;SDS011;16625;53.624;10.106;2024-02-28T05:48:45;41.27;;;18.83;;
4921;SDS011;16625;53.624;10.106;2024-02-28T05:51:14;35.80;;;16.20;;
4921;SDS011;16625;53.624;10.106;2024-02-28T05:53:41;37.50;;;18.77;;
4921;SDS011;16625;53.624;10.106;2024-02-28T05:56:09;42.40;;;20.00;;
4921;SDS011;16625;53.624;10.106;2024-02-28T05:58:39;41.90;;;18.57;;
4921;SDS011;16625;53.624;10.106;2024-02-28T06:01:06;44.30;;;19.17;;
4921;SDS011;16625;53.624;10.106;2024-02-28T06:03:33;30.80;;;17.23;;
4921;SDS011;16625;53.624;10.106;2024-02-28T06:06:00;37.07;;;18.87;;
4921;SDS011;16625;53.624;10.106;2024-02-28T06:08:31;37.20;;;18.03;;
4921;SDS011;16625;53.624;10.106;2024-02-28T06:11:00;39.17;;;16.53;;
4921;SDS011;16625;53.624;10.106;2024-02-28T06:13:27;33.13;;;16.20;;
4921;SDS011;16625;53.624;10.106;2024-02-28T06:15:54;31.63;;;14.77;;
4921;SDS011;16625;53.624;10.106;2024-02-28T06:18:21;33.87;;;17.40;;
4921;SDS011;16625;53.624;10.106;2024-02-28T06:20:51;35.47;;;18.30;;
4921;SDS011;16625;53.624;10.106;2024-02-28T06:23:18;36.80;;;17.80;;
4921;SDS011;16625;53.624;10.106;2024-02-28T06:25:47;35.80;;;18.00;;
4921;SDS011;16625;53.624;10.106;2024-02-28T06:28:14;31.80;;;17.20;;
4921;SDS011;16625;53.624;10.106;2024-02-28T06:30:42;36.30;;;17.90;;
4921;SDS011;16625;53.624;10.106;2024-02-28T06:33:09;34.50;;;16.13;;
4921;SDS011;16625;53.624;10.106;2024-02-28T06:35:36;32.70;;;17.17;;
4921;SDS011;16625;53.624;10.106;2024-02-28T06:38:03;31.43;;;16.53;;
4921;SDS011;16625;53.624;10.106;2024-02-28T06:40:30;30.93;;;18.03;;
4921;SDS011;16625;53.624;10.106;2024-02-28T06:42:58;31.57;;;15.97;;
4921;SDS011;16625;53.624;10.106;2024-02-28T06:45:25;28.80;;;15.53;;
4921;SDS011;16625;53.624;10.106;2024-02-28T06:47:52;31.73;;;15.17;;
4921;SDS011;16625;53.624;10.106;2024-02-28T06:50:19;31.80;;;15.37;;
4921;SDS011;16625;53.624;10.106;2024-02-28T06:52:46;29.77;;;14.80;;
4921;SDS011;16625;53.624;10.106;2024-02-28T06:55:13;28.37;;;15.20;;
4921;SDS011;16625;53.624;10.106;2024-02-28T06:57:40;30.60;;;14.57;;
4921;SDS011;16625;53.624;10.106;2024-02-28T07:00:10;27.13;;;14.80;;
4921;SDS011;16625;53.624;10.106;2024-02-28T07:02:39;25.30;;;13.50;;
4921;SDS011;16625;53.624;10.106;2024-02-28T07:05:06;27.13;;;13.90;;
4921;SDS011;16625;53.624;10.106;2024-02-28T07:07:33;32.03;;;14.17;;
4921;SDS011;16625;53.624;10.106;2024-02-28T07:10:02;26.40;;;14.50;;
4921;SDS011;16625;53.624;10.106;2024-02-28T07:12:29;22.90;;;13.10;;
4921;SDS011;16625;53.624;10.106;2024-02-28T07:14:56;25.93;;;13.47;;
4921;SDS011;16625;53.624;10.106;2024-02-28T07:17:24;28.67;;;13.93;;
4921;SDS011;16625;53.624;10.106;2024-02-28T07:19:51;29.67;;;14.80;;
4921;SDS011;16625;53.624;10.106;2024-02-28T07:22:18;23.80;;;12.67;;
4921;SDS011;16625;53.624;10.106;2024-02-28T07:24:46;25.43;;;13.60;;
4921;SDS011;16625;53.624;10.106;2024-02-28T07:27:13;32.70;;;14.77;;
4921;SDS011;16625;53.624;10.106;2024-02-28T07:29:40;23.70;;;13.23;;
4921;SDS011;16625;53.624;10.106;2024-02-28T07:32:07;27.37;;;14.40;;
4921;SDS011;16625;53.624;10.106;2024-02-28T07:34:35;23.87;;;13.43;;
4921;SDS011;16625;53.624;10.106;2024-02-28T07:37:02;21.77;;;12.97;;
4921;SDS011;16625;53.624;10.106;2024-02-28T07:39:30;33.50;;;14.13;;
4921;SDS011;16625;53.624;10.106;2024-02-28T07:41:57;32.47;;;15.17;;
4921;SDS011;16625;53.624;10.106;2024-02-28T07:44:23;25.03;;;13.07;;
4921;SDS011;16625;53.624;10.106;2024-02-28T07:46:51;33.40;;;14.00;;
4921;SDS011;16625;53.624;10.106;2024-02-28T07:49:18;24.50;;;13.80;;
4921;SDS011;16625;53.624;10.106;2024-02-28T07:51:46;21.90;;;12.93;;
4921;SDS011;16625;53.624;10.106;2024-02-28T07:54:13;29.40;;;14.80;;
4921;SDS011;16625;53.624;10.106;2024-02-28T07:56:40;27.00;;;13.07;;
4921;SDS011;16625;53.624;10.106;2024-02-28T07:59:07;30.63;;;13.60;;
4921;SDS011;16625;53.624;10.106;2024-02-28T08:01:34;27.00;;;14.50;;
4921;SDS011;16625;53.624;10.106;2024-02-28T08:04:03;23.07;;;13.60;;
4921;SDS011;16625;53.624;10.106;2024-02-28T08:06:32;26.87;;;14.20;;
4921;SDS011;16625;53.624;10.106;2024-02-28T08:09:00;27.97;;;14.87;;
4921;SDS011;16625;53.624;10.106;2024-02-28T08:11:29;31.13;;;14.23;;
4921;SDS011;16625;53.624;10.106;2024-02-28T08:13:56;24.60;;;14.13;;
4921;SDS011;16625;53.624;10.106;2024-02-28T08:16:23;26.97;;;14.13;;
4921;SDS011;16625;53.624;10.106;2024-02-28T08:18:49;24.97;;;14.07;;
4921;SDS011;16625;53.624;10.106;2024-02-28T08:21:16;28.10;;;13.77;;
4921;SDS011;16625;53.624;10.106;2024-02-28T08:23:43;26.80;;;15.97;;
4921;SDS011;16625;53.624;10.106;2024-02-28T08:26:12;26.87;;;15.53;;
4921;SDS011;16625;53.624;10.106;2024-02-28T08:28:39;31.00;;;17.70;;
4921;SDS011;16625;53.624;10.106;2024-02-28T08:31:06;26.30;;;14.70;;
4921;SDS011;16625;53.624;10.106;2024-02-28T08:33:33;35.63;;;14.90;;
4921;SDS011;16625;53.624;10.106;2024-02-28T08:36:00;28.60;;;16.37;;
4921;SDS011;16625;53.624;10.106;2024-02-28T08:38:27;27.97;;;14.60;;
4921;SDS011;16625;53.624;10.106;2024-02-28T08:40:54;33.10;;;16.83;;
4921;SDS011;16625;53.624;10.106;2024-02-28T08:43:22;28.70;;;14.83;;
4921;SDS011;16625;53.624;10.106;2024-02-28T08:45:49;29.00;;;15.57;;
4921;SDS011;16625;53.624;10.106;2024-02-28T08:48:16;30.53;;;18.40;;
4921;SDS011;16625;53.624;10.106;2024-02-28T08:50:44;28.63;;;16.03;;
4921;SDS011;16625;53.624;10.106;2024-02-28T08:53:11;27.20;;;15.50;;
4921;SDS011;16625;53.624;10.106;2024-02-28T08:55:38;31.50;;;16.90;;
4921;SDS011;16625;53.624;10.106;2024-02-28T08:58:06;30.73;;;17.07;;
4921;SDS011;16625;53.624;10.106;2024-02-28T09:00:35;26.07;;;14.07;;
4921;SDS011;16625;53.624;10.106;2024-02-28T09:03:03;31.60;;;17.10;;
4921;SDS011;16625;53.624;10.106;2024-02-28T09:05:30;28.77;;;15.37;;
4921;SDS011;16625;53.624;10.106;2024-02-28T09:07:57;30.07;;;17.03;;
4921;SDS011;16625;53.624;10.106;2024-02-28T09:10:26;36.50;;;17.83;;
4921;SDS011;16625;53.624;10.106;2024-02-28T09:12:53;30.60;;;16.13;;
4921;SDS011;16625;53.624;10.106;2024-02-28T09:15:20;34.50;;;18.23;;
4921;SDS011;16625;53.624;10.106;2024-02-28T09:17:48;36.77;;;18.60;;
4921;SDS011;16625;53.624;10.106;2024-02-28T09:20:15;36.97;;;17.30;;
4921;SDS011;16625;53.624;10.106;2024-02-28T09:22:43;33.17;;;18.83;;
4921;SDS011;16625;53.624;10.106;2024-02-28T09:25:10;36.33;;;18.50;;
4921;SDS011;16625;53.624;10.106;2024-02-28T09:27:37;43.23;;;19.07;;
4921;SDS011;16625;53.624;10.106;2024-02-28T09:30:04;30.73;;;17.37;;
4921;SDS011;16625;53.624;10.106;2024-02-28T09:32:32;36.27;;;20.63;;
4921;SDS011;16625;53.624;10.106;2024-02-28T09:35:00;35.37;;;21.30;;
4921;SDS011;16625;53.624;10.106;2024-02-28T09:37:28;32.13;;;16.70;;
4921;SDS011;16625;53.624;10.106;2024-02-28T09:39:56;34.80;;;19.23;;
4921;SDS011;16625;53.624;10.106;2024-02-28T09:42:23;43.17;;;18.17;;
4921;SDS011;16625;53.624;10.106;2024-02-28T09:44:50;34.37;;;19.37;;
4921;SDS011;16625;53.624;10.106;2024-02-28T09:47:17;34.30;;;17.77;;
4921;SDS011;16625;53.624;10.106;2024-02-28T09:49:44;31.10;;;16.53;;
4921;SDS011;16625;53.624;10.106;2024-02-28T09:52:16;37.07;;;19.30;;
4921;SDS011;16625;53.624;10.106;2024-02-28T09:54:43;34.77;;;20.13;;
4921;SDS011;16625;53.624;10.106;2024-02-28T09:57:11;34.13;;;18.33;;
4921;SDS011;16625;53.624;10.106;2024-02-28T09:59:38;38.53;;;19.53;;
4921;SDS011;16625;53.624;10.106;2024-02-28T10:02:07;35.43;;;18.60;;
4921;SDS011;16625;53.624;10.106;2024-02-28T10:04:36;31.07;;;16.77;;
4921;SDS011;16625;53.624;10.106;2024-02-28T10:07:10;34.30;;;18.50;;
4921;SDS011;16625;53.624;10.106;2024-02-28T10:09:40;35.20;;;17.50;;
4921;SDS011;16625;53.624;10.106;2024-02-28T10:12:08;36.30;;;19.20;;
4921;SDS011;16625;53.624;10.106;2024-02-28T10:14:35;31.60;;;16.40;;
4921;SDS011;16625;53.624;10.106;2024-02-28T10:17:03;39.70;;;17.70;;
4921;SDS011;16625;53.624;10.106;2024-02-28T10:19:30;35.47;;;18.57;;
4921;SDS011;16625;53.624;10.106;2024-02-28T10:21:57;27.13;;;15.03;;
4921;SDS011;16625;53.624;10.106;2024-02-28T10:24:24;28.53;;;17.97;;
4921;SDS011;16625;53.624;10.106;2024-02-28T10:26:53;26.57;;;14.70;;
4921;SDS011;16625;53.624;10.106;2024-02-28T10:29:22;28.97;;;15.43;;
4921;SDS011;16625;53.624;10.106;2024-02-28T10:31:49;33.17;;;17.30;;
4921;SDS011;16625;53.624;10.106;2024-02-28T10:34:17;39.03;;;18.70;;
4921;SDS011;16625;53.624;10.106;2024-02-28T10:36:44;29.10;;;16.00;;
4921;SDS011;16625;53.624;10.106;2024-02-28T10:39:11;32.30;;;16.40;;
4921;SDS011;16625;53.624;10.106;2024-02-28T10:41:38;32.20;;;15.90;;
4921;SDS011;16625;53.624;10.106;2024-02-28T10:44:07;23.70;;;12.53;;
4921;SDS011;16625;53.624;10.106;2024-02-28T10:46:35;22.73;;;12.93;;
4921;SDS011;16625;53.624;10.106;2024-02-28T10:49:04;25.03;;;12.00;;
4921;SDS011;16625;53.624;10.106;2024-02-28T10:51:33;27.23;;;15.07;;
4921;SDS011;16625;53.624;10.106;2024-02-28T10:54:04;23.23;;;12.50;;
4921;SDS011;16625;53.624;10.106;2024-02-28T10:56:36;25.23;;;12.67;;
4921;SDS011;16625;53.624;10.106;2024-02-28T10:59:03;28.60;;;12.47;;
4921;SDS011;16625;53.624;10.106;2024-02-28T11:01:35;23.40;;;12.80;;
4921;SDS011;16625;53.624;10.106;2024-02-28T11:04:04;25.77;;;13.40;;
4921;SDS011;16625;53.624;10.106;2024-02-28T11:06:31;24.70;;;12.50;;
4921;SDS011;16625;53.624;10.106;2024-02-28T11:08:58;24.43;;;12.53;;
4921;SDS011;16625;53.624;10.106;2024-02-28T11:11:29;27.07;;;13.13;;
4921;SDS011;16625;53.624;10.106;2024-02-28T11:13:57;24.33;;;14.90;;
4921;SDS011;16625;53.624;10.106;2024-02-28T11:16:27;29.07;;;13.90;;
4921;SDS011;16625;53.624;10.106;2024-02-28T11:18:55;22.80;;;11.97;;
4921;SDS011;16625;53.624;10.106;2024-02-28T11:21:22;26.30;;;14.93;;
4921;SDS011;16625;53.624;10.106;2024-02-28T11:23:51;24.83;;;14.37;;
4921;SDS011;16625;53.624;10.106;2024-02-28T11:26:18;24.83;;;14.57;;
4921;SDS011;16625;53.624;10.106;2024-02-28T11:28:46;23.83;;;13.70;;
4921;SDS011;16625;53.624;10.106;2024-02-28T11:31:14;24.33;;;13.93;;
4921;SDS011;16625;53.624;10.106;2024-02-28T11:33:42;31.97;;;15.30;;
4921;SDS011;16625;53.624;10.106;2024-02-28T11:36:10;25.50;;;13.97;;
4921;SDS011;16625;53.624;10.106;2024-02-28T11:38:38;24.87;;;12.83;;
4921;SDS011;16625;53.624;10.106;2024-02-28T11:41:05;27.10;;;13.33;;
4921;SDS011;16625;53.624;10.106;2024-02-28T11:43:32;29.43;;;14.23;;
4921;SDS011;16625;53.624;10.106;2024-02-28T11:46:01;30.97;;;16.80;;
4921;SDS011;16625;53.624;10.106;2024-02-28T11:48:29;30.53;;;15.43;;
4921;SDS011;16625;53.624;10.106;2024-02-28T11:50:59;26.47;;;14.00;;
4921;SDS011;16625;53.624;10.106;2024-02-28T11:53:26;25.53;;;14.10;;
4921;SDS011;16625;53.624;10.106;2024-02-28T11:55:54;26.80;;;13.87;;
4921;SDS011;16625;53.624;10.106;2024-02-28T11:58:22;27.10;;;13.87;;
4921;SDS011;16625;53.624;10.106;2024-02-28T12:00:49;21.50;;;12.77;;
4921;SDS011;16625;53.624;10.106;2024-02-28T12:03:20;26.63;;;12.90;;
4921;SDS011;16625;53.624;10.106;2024-02-28T12:05:48;26.57;;;12.90;;
4921;SDS011;16625;53.624;10.106;2024-02-28T12:08:18;23.27;;;12.87;;
4921;SDS011;16625;53.624;10.106;2024-02-28T12:10:45;25.40;;;14.27;;
4921;SDS011;16625;53.624;10.106;2024-02-28T12:13:15;25.63;;;13.07;;
4921;SDS011;16625;53.624;10.106;2024-02-28T12:15:43;22.20;;;13.67;;
4921;SDS011;16625;53.624;10.106;2024-02-28T12:18:11;30.77;;;15.00;;
4921;SDS011;16625;53.624;10.106;2024-02-28T12:20:40;35.23;;;13.00;;
4921;SDS011;16625;53.624;10.106;2024-02-28T12:23:07;23.13;;;12.50;;
4921;SDS011;16625;53.624;10.106;2024-02-28T12:25:36;30.00;;;13.73;;
4921;SDS011;16625;53.624;10.106;2024-02-28T12:28:04;25.50;;;14.67;;
4921;SDS011;16625;53.624;10.106;2024-02-28T12:30:39;25.67;;;13.33;;
4921;SDS011;16625;53.624;10.106;2024-02-28T12:33:07;22.80;;;13.67;;
4921;SDS011;16625;53.624;10.106;2024-02-28T12:35:34;21.83;;;11.93;;
4921;SDS011;16625;53.624;10.106;2024-02-28T12:38:01;25.53;;;12.87;;
4921;SDS011;16625;53.624;10.106;2024-02-28T12:40:29;24.23;;;13.40;;
4921;SDS011;16625;53.624;10.106;2024-02-28T12:42:56;24.20;;;12.90;;
4921;SDS011;16625;53.624;10.106;2024-02-28T12:45:23;24.03;;;12.67;;
4921;SDS011;16625;53.624;10.106;2024-02-28T12:47:51;28.33;;;14.93;;
4921;SDS011;16625;53.624;10.106;2024-02-28T12:50:22;21.87;;;12.80;;
4921;SDS011;16625;53.624;10.106;2024-02-28T12:52:49;21.97;;;12.27;;
4921;SDS011;16625;53.624;10.106;2024-02-28T12:55:18;28.97;;;14.33;;
4921;SDS011;16625;53.624;10.106;2024-02-28T12:57:46;31.13;;;13.30;;
4921;SDS011;16625;53.624;10.106;2024-02-28T13:00:15;24.33;;;13.97;;
4921;SDS011;16625;53.624;10.106;2024-02-28T13:02:44;33.77;;;14.87;;
4921;SDS011;16625;53.624;10.106;2024-02-28T13:05:12;20.40;;;12.47;;
4921;SDS011;16625;53.624;10.106;2024-02-28T13:07:39;23.93;;;12.90;;
4921;SDS011;16625;53.624;10.106;2024-02-28T13:10:06;24.07;;;13.07;;
4921;SDS011;16625;53.624;10.106;2024-02-28T13:12:34;25.10;;;11.00;;
4921;SDS011;16625;53.624;10.106;2024-02-28T13:15:01;25.57;;;14.10;;
4921;SDS011;16625;53.624;10.106;2024-02-28T13:17:29;23.60;;;12.70;;
4921;SDS011;16625;53.624;10.106;2024-02-28T13:19:56;26.20;;;14.00;;
4921;SDS011;16625;53.624;10.106;2024-02-28T13:22:23;21.63;;;11.33;;
4921;SDS011;16625;53.624;10.106;2024-02-28T13:24:51;25.20;;;12.27;;
4921;SDS011;16625;53.624;10.106;2024-02-28T13:27:18;20.93;;;12.00;;
4921;SDS011;16625;53.624;10.106;2024-02-28T13:29:44;21.23;;;12.03;;
4921;SDS011;16625;53.624;10.106;2024-02-28T13:32:11;26.30;;;13.20;;
4921;SDS011;16625;53.624;10.106;2024-02-28T13:34:40;23.80;;;9.83;;
4921;SDS011;16625;53.624;10.106;2024-02-28T13:37:07;24.23;;;12.90;;
4921;SDS011;16625;53.624;10.106;2024-02-28T13:39:34;26.47;;;11.90;;
4921;SDS011;16625;53.624;10.106;2024-02-28T13:42:01;26.90;;;12.37;;
4921;SDS011;16625;53.624;10.106;2024-02-28T13:44:31;27.43;;;13.20;;
4921;SDS011;16625;53.624;10.106;2024-02-28T13:46:59;28.53;;;14.53;;
4921;SDS011;16625;53.624;10.106;2024-02-28T13:49:26;24.30;;;12.53;;
4921;SDS011;16625;53.624;10.106;2024-02-28T13:51:54;26.03;;;12.10;;
4921;SDS011;16625;53.624;10.106;2024-02-28T13:54:21;22.17;;;12.93;;
4921;SDS011;16625;53.624;10.106;2024-02-28T13:56:48;26.87;;;14.20;;
4921;SDS011;16625;53.624;10.106;2024-02-28T13:59:15;23.57;;;12.43;;
4921;SDS011;16625;53.624;10.106;2024-02-28T14:01:42;22.37;;;10.53;;
4921;SDS011;16625;53.624;10.106;2024-02-28T14:04:10;26.47;;;13.60;;
4921;SDS011;16625;53.624;10.106;2024-02-28T14:06:37;23.83;;;11.67;;
4921;SDS011;16625;53.624;10.106;2024-02-28T14:09:05;21.70;;;12.20;;
4921;SDS011;16625;53.624;10.106;2024-02-28T14:11:32;20.73;;;12.23;;
4921;SDS011;16625;53.624;10.106;2024-02-28T14:14:00;25.30;;;12.27;;
4921;SDS011;16625;53.624;10.106;2024-02-28T14:16:26;20.00;;;12.80;;
4921;SDS011;16625;53.624;10.106;2024-02-28T14:18:54;27.33;;;12.53;;
4921;SDS011;16625;53.624;10.106;2024-02-28T14:21:21;27.20;;;11.93;;
4921;SDS011;16625;53.624;10.106;2024-02-28T14:23:49;22.80;;;12.07;;